• Join FlightAware (Why Join?)
  • Login
  • US Flag 
02:15PM EST


 

Airport Tracker/Info


-or-


 

Live Flight TrackerFlight Track Log ✈ SKW6526 ✈ 02-May-2013 ✈ KPHX - KLAX

Flight Track Log - Related Links

Times and Time Zones

All times are in EDT time to prevent confusion due to time zone crossing. See the SKW6526 flight status page for this flight to view local times or setup timezone preferences in your user account.

Time Position Orientation Groundspeed Altitude Reporting Facility
EDT Latitude Longitude Course Direction KTS MPH feet Rate Location/Type
02:03PM 33.4333 -111.9833 273° West 191 220 1,900  Level Phoenix TRACON
02:04PM 33.4333 -111.9000 90° East 207 238 5,100 2,400 Climbing Phoenix TRACON
02:05PM 33.4314 -111.8756 95° East 214 246 5,800 2,400 Climbing Albuquerque Center
02:06PM 33.4338 -112.3950 273° West  Level FlightAware Approximate
02:06PM 33.3758 -111.8422 153° Southeast 264 304 8,300  Level Albuquerque Center
02:07PM 33.4392 -112.5265 273° West  Level FlightAware Approximate
02:07PM 33.3250 -111.9144 230° Southwest 290 334 10,100  Level Albuquerque Center
02:08PM 33.4445 -112.6580 273° West  Level FlightAware Approximate
02:08PM 33.3317 -112.0319 274° West 330 380 12,500  Level Albuquerque Center
02:09PM 33.3500 -112.1361 282° West 320 368 15,000 2,220 Climbing Albuquerque Center
02:10PM 33.3661 -112.2458 280° West 331 381 17,200 2,220 Climbing Albuquerque Center
02:11PM 33.3847 -112.3653 281° West 338 389 19,600 2,280 Climbing Albuquerque Center
02:12PM 33.4014 -112.4750 280° West 336 387 21,900 1,920 Climbing Albuquerque Center
02:13PM 33.4197 -112.5967 280° West 345 397 23,600 1,380 Climbing Albuquerque Center
02:14PM 33.4356 -112.6967 281° West 358 412 24,800 1,260 Climbing Albuquerque Center
02:15PM 33.4536 -112.8175 280° West 369 425 26,300 1,500 Climbing Albuquerque Center
02:16PM 33.5017 -112.9578 292° West 380 437 27,900 1,260 Climbing Albuquerque Center
02:17PM 33.5450 -113.0772 294° West 388 447 29,000 1,080 Climbing Albuquerque Center
02:18PM 33.5872 -113.1997 293° West 394 453 30,200 1,200 Climbing Albuquerque Center
02:19PM 33.6317 -113.3228 293° West 400 460 31,500 840 Climbing Albuquerque Center
02:20PM 33.6753 -113.4456 293° West 402 463 32,000 240 Climbing Albuquerque Center
02:21PM 33.7211 -113.5750 293° West 413 475 32,000  Level Albuquerque Center
02:22PM 33.7764 -113.7319 293° West 423 487 32,000  Level Albuquerque Center
02:23PM 33.8219 -113.8639 293° West 427 491 32,000  Level Albuquerque Center
02:24PM 33.8669 -113.9964 292° West 428 493 32,000  Level Albuquerque Center
02:25PM 33.9117 -114.1294 292° West 430 495 32,000  Level Albuquerque Center
02:26PM 33.9561 -114.2608 292° West 428 493 32,000  Level Albuquerque Center
02:27PM 34.0033 -114.3853 295° West 404 465 32,000  Level Los Angeles Center
02:28PM 34.0417 -114.5011 292° West 379 436 32,000  Level Los Angeles Center
02:29PM 34.0825 -114.6186 293° West 380 437 32,000  Level Los Angeles Center
02:30PM 34.1036 -114.7697 280° West 391 450 32,000  Level Los Angeles Center
02:31PM 34.1053 -114.9000 271° West 390 449 32,000  Level Los Angeles Center
02:32PM 34.1075 -115.0306 271° West 391 450 32,000  Level Los Angeles Center
02:34PM 34.1083 -115.1617 270° West 393 452 32,000  Level Los Angeles Center
02:35PM 34.1103 -115.2928 271° West 393 452 32,000  Level Los Angeles Center
02:36PM 34.1114 -115.4236 271° West 393 452 32,000  Level Los Angeles Center
02:37PM 34.1117 -115.5792 270° West 389 448 32,000  Level Los Angeles Center
02:38PM 34.1125 -115.7092 270° West 390 449 32,000 -540 Level Los Angeles Center
02:39PM 34.1067 -115.8381 267° West 389 448 31,000 -1,200 Descending Los Angeles Center
02:40PM 34.1236 -115.9631 279° West 379 436 29,600 -1,440 Descending Los Angeles Center
02:41PM 34.1275 -116.1050 272° West 379 436 28,100 -1,680 Descending Los Angeles Center
02:42PM 34.1075 -116.2269 259° West 361 415 26,100 -1,680 Descending Los Angeles Center
02:43PM 34.0878 -116.3436 258° West 357 411 24,700 -1,260 Descending Los Angeles Center
02:44PM 34.0681 -116.4578 258° West 351 404 23,500 -1,260 Descending Los Angeles Center
02:45PM 34.0475 -116.5819 259° West 374 430 22,200 -1,320 Descending Los Angeles Center
02:46PM 34.0264 -116.7056 258° West 379 436 20,800 -1,260 Descending Los Angeles Center
02:47PM 34.0050 -116.8247 258° West 370 426 19,600 -1,320 Descending Los Angeles Center
02:47PM 34.0000 -116.8833 264° West 362 417 19,100 -1,380 Descending Southern California TRACON
02:48PM 33.9667 -117.0000 251° West 371 427 17,900 -1,260 Descending Southern California TRACON
02:49PM 33.9500 -117.1333 261° West 363 418 16,600 -1,080 Descending Southern California TRACON
02:50PM 33.9500 -117.2500 270° West 350 403 15,800 -840 Descending Southern California TRACON
02:51PM 33.9333 -117.3667 260° West 354 407 15,000 -1,140 Descending Southern California TRACON
02:52PM 33.9667 -117.4500 296° West 343 395 13,700 -1,380 Descending Southern California TRACON
02:53PM 34.0000 -117.5500 292° West 325 374 12,400 -1,320 Descending Southern California TRACON
02:54PM 34.0167 -117.6667 280° West 363 418 11,100 -1,140 Descending Southern California TRACON
02:55PM 34.0000 -117.7833 260° West 314 361 10,200 -1,200 Descending Southern California TRACON
02:56PM 33.9833 -117.8833 259° West 290 334 8,800 -1,440 Descending Southern California TRACON
02:57PM 33.9833 -117.9667 270° West 282 325 7,500 -1,500 Descending Southern California TRACON
02:58PM 33.9667 -118.0500 256° West 268 308 6,000 -1,440 Descending Southern California TRACON
02:59PM 33.9667 -118.1333 270° West 221 254 4,600 -1,320 Descending Southern California TRACON
02:59PM 33.9622 -118.1442 244° Southwest 228 262 4,300 -1,200 Descending Los Angeles Center
03:00PM 33.9558 -118.2078 263° West 200 230 3,000 -1,080 Descending Los Angeles Center
03:01PM 33.9486 -118.2683 262° West 192 221 2,100 -900 Descending Los Angeles Center